createdAt,value
2022-10-15T00:01:59.230Z,98894.97
2022-10-15T00:04:31.603Z,98889.25
2022-10-15T00:07:03.299Z,98886.78
2022-10-15T00:09:35.051Z,98877.81
2022-10-15T00:12:06.888Z,98879.25
2022-10-15T00:14:38.626Z,98878.84
2022-10-15T00:17:10.466Z,98888.44
2022-10-15T00:19:42.336Z,98878.19
2022-10-15T00:22:14.187Z,98882.50
2022-10-15T00:24:46.219Z,98870.66
2022-10-15T00:27:18.069Z,98880.28
2022-10-15T00:29:49.740Z,98878.22
2022-10-15T00:32:23.996Z,98874.75
2022-10-15T00:34:58.691Z,98871.31
2022-10-15T00:37:30.730Z,98864.75
2022-10-15T00:42:39.107Z,98863.31
2022-10-15T00:45:14.246Z,98849.00
2022-10-15T00:47:52.870Z,98853.28
2022-10-15T00:50:27.566Z,98858.19
2022-10-15T00:53:07.897Z,98852.88
2022-10-15T00:55:44.211Z,98864.72
2022-10-15T00:58:22.521Z,98858.41
2022-10-15T01:00:56.437Z,98841.44
2022-10-15T01:03:28.639Z,98842.47
2022-10-15T01:06:01.325Z,98836.97
2022-10-15T01:08:37.306Z,98838.81
2022-10-15T01:11:36.314Z,98830.41
2022-10-15T01:14:20.171Z,98824.91
2022-10-15T01:16:59.944Z,98819.41
2022-10-15T01:19:48.834Z,98812.47
2022-10-15T01:22:48.026Z,98811.44
2022-10-15T01:25:56.820Z,98807.34
2022-10-15T01:28:47.390Z,98808.59
2022-10-15T01:31:34.261Z,98801.84
2022-10-15T01:36:58.120Z,98787.53
2022-10-15T01:39:34.957Z,98790.19
2022-10-15T01:42:30.752Z,98775.91
2022-10-15T01:45:08.730Z,98784.88
2022-10-15T01:47:56.686Z,98786.72
2022-10-15T01:50:32.540Z,98790.59
2022-10-15T01:53:08.161Z,98796.94
2022-10-15T01:55:45.324Z,98790.41
2022-10-15T01:58:18.402Z,98789.00
2022-10-15T02:00:54.633Z,98787.75
2022-10-15T02:03:26.641Z,98788.75
2022-10-15T02:06:06.486Z,98789.38
2022-10-15T02:09:13.257Z,98788.19
2022-10-15T02:11:59.328Z,98788.38
2022-10-15T02:14:43.908Z,98775.09
2022-10-15T02:17:18.643Z,98778.97
2022-10-15T02:22:38.623Z,98774.47
2022-10-15T02:25:18.895Z,98771.81
2022-10-15T02:27:56.670Z,98772.03
2022-10-15T02:30:30.534Z,98777.75
2022-10-15T02:33:02.396Z,98779.19
2022-10-15T02:35:35.640Z,98767.53
2022-10-15T02:38:15.898Z,98772.22
2022-10-15T02:40:49.658Z,98763.84
2022-10-15T02:43:24.475Z,98760.19
2022-10-15T02:45:56.514Z,98759.56
2022-10-15T02:48:28.301Z,98750.78
2022-10-15T02:50:59.935Z,98752.00
2022-10-15T02:53:31.725Z,98759.97
2022-10-15T02:56:03.670Z,98760.16
2022-10-15T02:58:35.531Z,98747.13
2022-10-15T03:01:07.561Z,98742.00
2022-10-15T03:03:40.073Z,98735.69
2022-10-15T03:06:11.843Z,98738.53
2022-10-15T03:08:44.469Z,98741.19
2022-10-15T03:11:16.738Z,98737.91
2022-10-15T03:13:48.494Z,98741.81
2022-10-15T03:16:20.523Z,98736.69
2022-10-15T03:18:52.650Z,98740.56
2022-10-15T03:21:24.529Z,98742.22
2022-10-15T03:24:00.658Z,98734.06
2022-10-15T03:26:32.408Z,98735.25
2022-10-15T03:29:04.215Z,98736.72
2022-10-15T03:31:54.925Z,98730.38
2022-10-15T03:34:26.901Z,98733.63
2022-10-15T03:36:58.701Z,98734.44
2022-10-15T03:39:30.543Z,98733.25
2022-10-15T03:42:06.686Z,98734.88
2022-10-15T03:44:51.473Z,98730.16
2022-10-15T03:47:24.675Z,98729.16
2022-10-15T03:49:56.491Z,98719.53
2022-10-15T03:52:29.157Z,98724.25
2022-10-15T03:55:04.221Z,98724.47
2022-10-15T03:57:39.431Z,98725.06
2022-10-15T04:00:13.739Z,98726.09
2022-10-15T04:02:45.356Z,98726.91
2022-10-15T04:05:28.913Z,98721.59
2022-10-15T04:08:07.290Z,98726.69
2022-10-15T04:10:43.751Z,98722.63
2022-10-15T04:13:15.605Z,98727.09
2022-10-15T04:15:48.128Z,98719.16
2022-10-15T04:18:23.234Z,98719.78
2022-10-15T04:20:59.912Z,98709.34
2022-10-15T04:23:31.584Z,98710.38
2022-10-15T04:26:26.870Z,98706.88
2022-10-15T04:28:58.718Z,98709.75
2022-10-15T04:31:35.346Z,98706.25
2022-10-15T04:34:07.617Z,98709.16
2022-10-15T04:36:41.751Z,98714.66
2022-10-15T04:39:24.660Z,98711.81
2022-10-15T04:41:56.392Z,98713.63
2022-10-15T04:44:34.184Z,98716.69
2022-10-15T04:47:07.414Z,98716.50
2022-10-15T04:49:46.294Z,98713.84
2022-10-15T04:52:53.151Z,98711.56
2022-10-15T04:55:24.857Z,98709.75
2022-10-15T04:58:01.880Z,98711.38
2022-10-15T05:00:35.147Z,98717.13
2022-10-15T05:03:36.445Z,98708.13
2022-10-15T05:06:16.589Z,98711.19
2022-10-15T05:08:49.951Z,98704.03
2022-10-15T05:11:28.044Z,98711.59
2022-10-15T05:14:02.226Z,98711.38
2022-10-15T05:16:36.631Z,98712.81
2022-10-15T05:19:08.895Z,98704.66
2022-10-15T05:21:46.650Z,98707.09
2022-10-15T05:24:31.844Z,98714.25
2022-10-15T05:27:16.388Z,98715.47
2022-10-15T05:29:48.523Z,98719.75
2022-10-15T05:34:56.708Z,98711.81
2022-10-15T05:37:37.450Z,98720.97
2022-10-15T05:40:09.739Z,98721.41
2022-10-15T05:42:41.884Z,98727.94
2022-10-15T05:45:13.907Z,98727.09
2022-10-15T05:47:46.535Z,98723.63
2022-10-15T05:50:26.667Z,98727.09
2022-10-15T05:53:01.630Z,98725.25
2022-10-15T05:55:39.470Z,98721.97
2022-10-15T05:58:11.524Z,98725.69
2022-10-15T06:00:46.281Z,98732.22
2022-10-15T06:03:19.341Z,98729.56
2022-10-15T06:05:51.330Z,98741.19
2022-10-15T06:08:24.213Z,98735.47
2022-10-15T06:11:05.292Z,98733.03
2022-10-15T06:13:44.864Z,98735.47
2022-10-15T06:16:21.142Z,98734.44
2022-10-15T06:18:55.590Z,98741.22
2022-10-15T06:21:27.544Z,98743.44
2022-10-15T06:24:03.169Z,98739.56
2022-10-15T06:26:37.280Z,98745.47
2022-10-15T06:29:10.029Z,98736.09
2022-10-15T06:31:41.812Z,98742.44
2022-10-15T06:34:13.688Z,98752.44
2022-10-15T06:36:45.867Z,98745.47
2022-10-15T06:39:17.984Z,98743.44
2022-10-15T06:41:49.679Z,98745.91
2022-10-15T06:44:23.075Z,98746.28
2022-10-15T06:46:55.419Z,98745.91
2022-10-15T06:49:27.286Z,98747.31
2022-10-15T06:52:02.699Z,98745.47
2022-10-15T06:54:38.165Z,98746.09
2022-10-15T06:57:10.710Z,98747.75
2022-10-15T06:59:42.655Z,98744.66
2022-10-15T07:02:19.381Z,98748.94
2022-10-15T07:04:51.283Z,98751.59
2022-10-15T07:07:26.390Z,98754.25
2022-10-15T07:09:58.191Z,98756.72
2022-10-15T07:12:29.978Z,98760.59
2022-10-15T07:15:01.717Z,98755.09
2022-10-15T07:17:35.247Z,98758.13
2022-10-15T07:20:07.789Z,98756.50
2022-10-15T07:22:39.745Z,98757.31
2022-10-15T07:25:11.840Z,98768.56
2022-10-15T07:27:43.523Z,98760.78
2022-10-15T07:30:15.262Z,98763.88
2022-10-15T07:32:50.295Z,98767.13
2022-10-15T07:35:22.107Z,98770.00
2022-10-15T07:37:54.625Z,98760.38
2022-10-15T07:40:26.365Z,98754.66
2022-10-15T07:42:59.500Z,98767.34
2022-10-15T07:45:36.144Z,98764.47
2022-10-15T07:48:10.421Z,98765.72
2022-10-15T07:50:42.433Z,98772.44
2022-10-15T07:53:15.359Z,98770.19
2022-10-15T07:55:48.626Z,98767.31
2022-10-15T07:58:20.551Z,98770.78
2022-10-15T08:00:53.299Z,98763.63
2022-10-15T08:03:28.177Z,98756.09
2022-10-15T08:06:01.174Z,98752.81
2022-10-15T08:08:34.317Z,98763.44
2022-10-15T08:11:15.581Z,98758.31
2022-10-15T08:13:53.062Z,98760.59
2022-10-15T08:16:24.749Z,98759.34
2022-10-15T08:19:05.938Z,98753.63
2022-10-15T08:21:37.617Z,98765.47
2022-10-15T08:24:09.326Z,98760.34
2022-10-15T08:26:44.190Z,98753.59
2022-10-15T08:29:24.041Z,98769.97
2022-10-15T08:31:56.010Z,98769.97
2022-10-15T08:34:28.524Z,98768.72
2022-10-15T08:37:00.250Z,98765.84
2022-10-15T08:39:32.020Z,98760.53
2022-10-15T08:42:12.253Z,98758.03
2022-10-15T08:45:06.859Z,98761.06
2022-10-15T08:47:51.333Z,98761.66
2022-10-15T08:50:53.221Z,98772.28
2022-10-15T08:53:31.103Z,98758.97
2022-10-15T08:56:38.105Z,98768.13
2022-10-15T08:59:28.600Z,98777.13
2022-10-15T09:02:26.836Z,98795.75
2022-10-15T09:05:03.525Z,98788.56
2022-10-15T09:08:15.111Z,98787.13
2022-10-15T09:10:53.192Z,98784.25
2022-10-15T09:13:40.344Z,98788.34
2022-10-15T09:16:43.064Z,98791.00
2022-10-15T09:19:23.967Z,98783.19
2022-10-15T09:21:56.159Z,98785.84
2022-10-15T09:24:31.955Z,98781.31
2022-10-15T09:27:13.184Z,98793.53
2022-10-15T09:30:04.756Z,98788.59
2022-10-15T09:33:21.265Z,98793.91
2022-10-15T09:36:25.400Z,98796.13
2022-10-15T09:39:27.890Z,98793.28
2022-10-15T09:42:26.716Z,98796.50
2022-10-15T09:45:06.550Z,98791.59
2022-10-15T09:47:42.302Z,98799.66
2022-10-15T09:50:14.748Z,98803.22
2022-10-15T09:53:09.675Z,98803.47
2022-10-15T09:56:04.754Z,98810.47
2022-10-15T09:58:59.647Z,98810.66
2022-10-15T10:01:33.214Z,98812.88
2022-10-15T10:04:34.693Z,98817.97
2022-10-15T10:07:35.318Z,98824.16
2022-10-15T10:10:30.845Z,98823.53
2022-10-15T10:13:02.529Z,98821.88
2022-10-15T10:15:37.486Z,98819.78
2022-10-15T10:18:19.992Z,98820.59
2022-10-15T10:21:01.695Z,98817.31
2022-10-15T10:23:36.479Z,98812.59
2022-10-15T10:26:12.119Z,98814.25
2022-10-15T10:28:56.893Z,98815.84
2022-10-15T10:31:42.605Z,98812.28
2022-10-15T10:34:20.456Z,98818.50
2022-10-15T10:36:55.420Z,98824.44
2022-10-15T10:39:34.326Z,98822.59
2022-10-15T10:42:18.547Z,98825.44
2022-10-15T10:44:52.519Z,98828.72
2022-10-15T10:47:26.446Z,98827.41
2022-10-15T10:50:27.295Z,98825.97
2022-10-15T10:53:17.032Z,98818.97
2022-10-15T10:55:53.723Z,98827.13
2022-10-15T10:58:34.557Z,98827.13
2022-10-15T11:01:06.423Z,98831.41
2022-10-15T11:03:43.329Z,98823.63
2022-10-15T11:06:35.917Z,98832.63
2022-10-15T11:09:18.427Z,98834.00
2022-10-15T11:12:12.016Z,98835.13
2022-10-15T11:14:56.053Z,98839.25
2022-10-15T11:17:35.198Z,98836.66
2022-10-15T11:20:44.237Z,98831.78
2022-10-15T11:23:57.757Z,98832.91
2022-10-15T11:26:58.828Z,98833.44
2022-10-15T11:29:47.474Z,98821.31
2022-10-15T11:32:28.450Z,98835.84
2022-10-15T11:35:08.471Z,98831.69
2022-10-15T11:37:48.799Z,98824.25
2022-10-15T11:40:49.074Z,98828.47
2022-10-15T11:43:35.993Z,98817.59
2022-10-15T11:46:44.252Z,98813.44
2022-10-15T11:50:06.050Z,98811.44
2022-10-15T11:52:58.851Z,98819.38
2022-10-15T11:55:48.171Z,98819.75
2022-10-15T11:58:51.766Z,98816.50
2022-10-15T12:01:50.065Z,98812.84
2022-10-15T12:04:51.879Z,98810.72
2022-10-15T12:07:45.061Z,98818.94
2022-10-15T12:10:52.972Z,98818.16
2022-10-15T12:13:51.294Z,98812.25
2022-10-15T12:16:51.124Z,98815.97
2022-10-15T12:19:51.686Z,98812.25
2022-10-15T12:22:51.969Z,98817.38
2022-10-15T12:25:36.263Z,98820.06
2022-10-15T12:28:18.952Z,98824.94
2022-10-15T12:31:02.856Z,98819.81
2022-10-15T12:33:39.626Z,98828.22
2022-10-15T12:36:28.036Z,98831.66
2022-10-15T12:39:47.555Z,98830.63
2022-10-15T12:42:29.954Z,98828.75
2022-10-15T12:45:06.353Z,98827.72
2022-10-15T12:47:56.607Z,98829.81
2022-10-15T12:50:31.217Z,98832.72
2022-10-15T12:53:25.852Z,98827.16
2022-10-15T12:56:14.159Z,98827.38
2022-10-15T12:58:51.531Z,98828.53
2022-10-15T13:01:23.445Z,98826.00
2022-10-15T13:03:57.489Z,98827.72
2022-10-15T13:06:36.663Z,98835.28
2022-10-15T13:09:11.145Z,98835.06
2022-10-15T13:11:44.834Z,98839.00
2022-10-15T13:14:40.146Z,98832.09
2022-10-15T13:17:22.096Z,98831.75
2022-10-15T13:20:07.889Z,98831.28
2022-10-15T13:22:39.719Z,98833.88
2022-10-15T13:25:18.307Z,98836.38
2022-10-15T13:27:50.003Z,98830.81
2022-10-15T13:32:59.885Z,98833.84
2022-10-15T13:35:37.460Z,98828.72
2022-10-15T13:38:29.420Z,98835.25
2022-10-15T13:41:04.637Z,98834.16
2022-10-15T13:43:36.419Z,98836.28
2022-10-15T13:46:18.830Z,98843.41
2022-10-15T13:49:13.169Z,98834.56
2022-10-15T13:51:49.552Z,98836.31
2022-10-15T13:54:28.866Z,98843.44
2022-10-15T13:57:02.614Z,98850.16
2022-10-15T13:59:37.359Z,98844.47
2022-10-15T14:02:12.030Z,98846.09
2022-10-15T14:04:44.939Z,98854.47
2022-10-15T14:07:27.702Z,98855.88
2022-10-15T14:10:00.017Z,98856.00
2022-10-15T14:12:31.888Z,98859.72
2022-10-15T14:15:41.007Z,98862.53
2022-10-15T14:18:15.255Z,98864.50
2022-10-15T14:20:48.122Z,98863.13
2022-10-15T14:23:24.073Z,98868.78
2022-10-15T14:26:02.796Z,98870.97
2022-10-15T14:28:35.105Z,98865.00
2022-10-15T14:31:08.198Z,98857.66
2022-10-15T14:33:43.207Z,98861.97
2022-10-15T14:36:20.872Z,98868.13
2022-10-15T14:38:54.089Z,98863.38
2022-10-15T14:41:34.038Z,98864.72
2022-10-15T14:44:17.994Z,98867.19
2022-10-15T14:46:53.111Z,98863.09
2022-10-15T14:49:33.378Z,98863.69
2022-10-15T14:52:10.585Z,98854.03
2022-10-15T14:54:59.568Z,98857.28
2022-10-15T14:57:37.736Z,98861.47
2022-10-15T15:00:32.042Z,98863.53
2022-10-15T15:03:06.406Z,98860.06
2022-10-15T15:05:51.146Z,98855.38
2022-10-15T15:08:27.546Z,98868.50
2022-10-15T15:11:02.260Z,98868.28
2022-10-15T15:13:45.767Z,98865.41
2022-10-15T15:16:18.490Z,98864.34
2022-10-15T15:18:50.174Z,98863.78
2022-10-15T15:21:23.689Z,98860.50
2022-10-15T15:23:55.405Z,98865.50
2022-10-15T15:26:29.471Z,98866.06
2022-10-15T15:29:01.530Z,98865.25
2022-10-15T15:31:33.855Z,98868.97
2022-10-15T15:34:05.655Z,98868.72
2022-10-15T15:36:37.649Z,98870.16
2022-10-15T15:39:09.584Z,98869.94
2022-10-15T15:41:41.453Z,98867.00
2022-10-15T15:44:14.462Z,98871.19
2022-10-15T15:46:50.302Z,98870.16
2022-10-15T15:49:25.014Z,98879.88
2022-10-15T15:51:57.161Z,98880.31
2022-10-15T15:54:29.255Z,98890.63
2022-10-15T15:57:01.234Z,98894.19
2022-10-15T15:59:35.950Z,98906.09
2022-10-15T16:02:12.022Z,98907.38
2022-10-15T16:04:45.589Z,98909.66
2022-10-15T16:07:19.552Z,98913.81
2022-10-15T16:09:51.536Z,98920.44
2022-10-15T16:12:26.201Z,98923.31
2022-10-15T16:17:33.381Z,98927.97
2022-10-15T16:20:06.437Z,98930.09
2022-10-15T16:22:38.474Z,98927.72
2022-10-15T16:25:10.689Z,98929.72
2022-10-15T16:27:45.618Z,98943.50
2022-10-15T16:30:19.564Z,98945.13
2022-10-15T16:32:51.280Z,98940.22
2022-10-15T16:35:23.112Z,98947.84
2022-10-15T16:37:57.751Z,98941.09
2022-10-15T16:40:29.630Z,98947.47
2022-10-15T16:43:01.431Z,98947.50
2022-10-15T16:45:33.492Z,98940.31
2022-10-15T16:48:06.429Z,98949.59
2022-10-15T16:50:38.142Z,98948.56
2022-10-15T16:53:11.882Z,98947.09
2022-10-15T16:55:43.531Z,98963.94
2022-10-15T16:58:15.201Z,98965.97
2022-10-15T17:00:47.031Z,98979.31
2022-10-15T17:03:18.791Z,98971.53
2022-10-15T17:05:50.480Z,98971.16
2022-10-15T17:08:22.677Z,98976.94
2022-10-15T17:10:55.569Z,98979.59
2022-10-15T17:13:27.577Z,98979.19
2022-10-15T17:16:11.574Z,98981.50
2022-10-15T17:18:44.927Z,98989.50
2022-10-15T17:21:19.893Z,98987.03
2022-10-15T17:23:54.804Z,98987.84
2022-10-15T17:26:29.151Z,98987.47
2022-10-15T17:29:01.014Z,99000.19
2022-10-15T17:31:35.629Z,99003.88
2022-10-15T17:34:07.998Z,99009.41
2022-10-15T17:36:45.274Z,99007.41
2022-10-15T17:39:19.785Z,99010.88
2022-10-15T17:41:54.662Z,99012.56
2022-10-15T17:44:26.339Z,99020.16
2022-10-15T17:46:58.395Z,99023.03
2022-10-15T17:49:32.698Z,99038.22
2022-10-15T17:52:04.324Z,99037.41
2022-10-15T17:54:38.784Z,99046.22
2022-10-15T17:57:14.442Z,99039.84
2022-10-15T17:59:48.824Z,99040.06
2022-10-15T18:02:22.856Z,99042.09
2022-10-15T18:04:56.727Z,99046.63
2022-10-15T18:07:28.644Z,99046.03
2022-10-15T18:10:01.723Z,99053.19
2022-10-15T18:12:33.428Z,99056.88
2022-10-15T18:15:05.892Z,99063.69
2022-10-15T18:17:37.603Z,99059.56
2022-10-15T18:20:09.687Z,99062.06
2022-10-15T18:22:41.398Z,99067.00
2022-10-15T18:25:13.371Z,99079.72
2022-10-15T18:27:45.411Z,99067.41
2022-10-15T18:30:17.422Z,99077.03
2022-10-15T18:32:50.447Z,99081.56
2022-10-15T18:35:23.888Z,99077.69
2022-10-15T18:37:55.508Z,99084.66
2022-10-15T18:40:27.226Z,99080.09
2022-10-15T18:42:58.893Z,99083.41
2022-10-15T18:45:38.632Z,99084.00
2022-10-15T18:48:13.374Z,99078.88
2022-10-15T18:53:17.704Z,99092.84
2022-10-15T18:55:49.486Z,99086.06
2022-10-15T18:58:21.143Z,99084.44
2022-10-15T19:00:52.825Z,99088.16
2022-10-15T19:03:26.032Z,99082.81
2022-10-15T19:05:57.866Z,99082.00
2022-10-15T19:08:32.703Z,99084.66
2022-10-15T19:11:06.196Z,99083.03
2022-10-15T19:13:37.884Z,99083.22
2022-10-15T19:16:09.736Z,99081.81
2022-10-15T19:18:41.375Z,99084.69
2022-10-15T19:21:13.208Z,99084.88
2022-10-15T19:23:45.070Z,99094.72
2022-10-15T19:26:18.995Z,99100.03
2022-10-15T19:28:51.934Z,99106.19
2022-10-15T19:31:26.950Z,99105.34
2022-10-15T19:33:59.806Z,99109.88
2022-10-15T19:36:40.750Z,99098.81
2022-10-15T19:39:22.363Z,99108.84
2022-10-15T19:41:54.151Z,99103.34
2022-10-15T19:44:30.701Z,99107.44
2022-10-15T19:47:02.331Z,99098.22
2022-10-15T19:49:34.377Z,99107.44
2022-10-15T19:52:06.115Z,99104.78
2022-10-15T19:54:37.783Z,99110.28
2022-10-15T19:57:09.475Z,99104.13
2022-10-15T19:59:43.395Z,99106.19
2022-10-15T20:02:15.244Z,99110.09
2022-10-15T20:04:46.915Z,99104.38
2022-10-15T20:07:19.270Z,99108.25
2022-10-15T20:09:51.014Z,99106.78
2022-10-15T20:12:22.745Z,99113.16
2022-10-15T20:14:54.377Z,99109.69
2022-10-15T20:17:26.652Z,99118.50
2022-10-15T20:19:58.920Z,99119.72
2022-10-15T20:22:30.818Z,99120.91
2022-10-15T20:25:02.625Z,99124.00
2022-10-15T20:27:38.207Z,99126.88
2022-10-15T20:30:11.260Z,99125.66
2022-10-15T20:32:43.888Z,99128.31
2022-10-15T20:35:16.291Z,99138.13
2022-10-15T20:37:48.483Z,99139.78
2022-10-15T20:40:20.139Z,99140.59
2022-10-15T20:42:51.945Z,99145.91
2022-10-15T20:45:27.093Z,99147.94
2022-10-15T20:47:59.023Z,99155.31
2022-10-15T20:50:34.531Z,99161.88
2022-10-15T20:53:06.441Z,99165.75
2022-10-15T20:55:38.588Z,99167.41
2022-10-15T20:58:10.660Z,99168.59
2022-10-15T21:00:42.440Z,99173.94
2022-10-15T21:03:14.273Z,99181.91
2022-10-15T21:05:45.943Z,99181.72
2022-10-15T21:08:19.801Z,99169.88
2022-10-15T21:10:51.614Z,99174.97
2022-10-15T21:13:24.425Z,99174.97
2022-10-15T21:16:04.357Z,99181.72
2022-10-15T21:18:37.137Z,99179.91
2022-10-15T21:21:14.203Z,99179.69
2022-10-15T21:23:45.945Z,99185.84
2022-10-15T21:26:18.907Z,99186.44
2022-10-15T21:28:55.535Z,99196.91
2022-10-15T21:31:28.134Z,99194.22
2022-10-15T21:33:59.859Z,99197.72
2022-10-15T21:36:31.612Z,99207.34
2022-10-15T21:39:08.773Z,99202.84
2022-10-15T21:41:40.598Z,99208.75
2022-10-15T21:44:15.045Z,99211.22
2022-10-15T21:46:46.741Z,99207.56
2022-10-15T21:49:20.437Z,99203.06
2022-10-15T21:51:52.183Z,99200.97
2022-10-15T21:54:25.051Z,99209.78
2022-10-15T21:56:56.734Z,99219.44
2022-10-15T21:59:28.602Z,99226.59
2022-10-15T22:02:00.424Z,99229.06
2022-10-15T22:04:35.881Z,99215.13
2022-10-15T22:07:09.263Z,99222.28
2022-10-15T22:09:40.992Z,99218.81
2022-10-15T22:12:15.657Z,99224.34
2022-10-15T22:14:49.668Z,99216.34
2022-10-15T22:17:21.299Z,99218.41
2022-10-15T22:19:53.186Z,99221.69
2022-10-15T22:22:25.434Z,99224.16
2022-10-15T22:25:01.949Z,99219.63
2022-10-15T22:27:33.713Z,99221.25
2022-10-15T22:30:06.006Z,99223.91
2022-10-15T22:32:37.675Z,99225.75
2022-10-15T22:35:09.695Z,99233.56
2022-10-15T22:37:46.341Z,99242.38
2022-10-15T22:40:21.183Z,99231.31
2022-10-15T22:42:52.929Z,99231.91
2022-10-15T22:45:24.681Z,99232.75
2022-10-15T22:47:56.313Z,99228.91
2022-10-15T22:50:28.417Z,99232.38
2022-10-15T22:53:00.202Z,99235.66
2022-10-15T22:55:31.975Z,99222.56
2022-10-15T22:58:03.666Z,99238.09
2022-10-15T23:00:35.393Z,99235.25
2022-10-15T23:03:07.190Z,99229.94
2022-10-15T23:05:38.972Z,99230.75
2022-10-15T23:10:43.502Z,99228.69
2022-10-15T23:13:15.887Z,99228.69
2022-10-15T23:15:47.591Z,99236.28
2022-10-15T23:18:19.248Z,99237.47
2022-10-15T23:20:51.149Z,99246.28
2022-10-15T23:23:22.879Z,99240.97
2022-10-15T23:25:54.843Z,99245.28
2022-10-15T23:28:26.794Z,99239.75
2022-10-15T23:30:58.638Z,99238.94
2022-10-15T23:33:30.551Z,99245.09
2022-10-15T23:36:04.863Z,99243.25
2022-10-15T23:38:36.481Z,99249.59
2022-10-15T23:41:10.333Z,99257.38
2022-10-15T23:43:42.266Z,99256.13
2022-10-15T23:46:18.152Z,99262.47
2022-10-15T23:48:50.452Z,99257.16
2022-10-15T23:51:25.593Z,99258.59
2022-10-15T23:53:59.090Z,99254.28
2022-10-15T23:56:31.330Z,99258.41
2022-10-15T23:59:03.187Z,99260.06
